Time;durP1;ratioP1;P1;durP2;ratioP2;P2;SDS_P1;SDS_P2;PMS_P1;PMS_P2;Temp;Humidity;BMP_temperature;BMP_pressure;BME280_temperature;BME280_humidity;BME280_pressure;Samples;Min_cycle;Max_cycle;Signal;HPM_P1;HPM_P2
2022/07/18 00:03:41;;;;;;;1.30;1.13;;;20.30;38.30;;;18.55;40.57;102120.50;12237642;19;20310;-77
2022/07/18 00:07:43;;;;;;;1.45;1.20;;;20.30;38.40;;;18.57;40.97;102123.84;12240254;19;20480;-76
2022/07/18 00:11:45;;;;;;;2.35;1.48;;;20.30;38.50;;;18.66;41.13;102135.66;12230236;19;20022;-77
2022/07/18 00:15:47;;;;;;;1.30;1.20;;;20.40;38.70;;;18.71;40.88;102141.47;12239035;19;20401;-77
2022/07/18 00:19:49;;;;;;;1.85;1.25;;;20.40;38.70;;;18.70;41.01;102118.59;12240001;19;20018;-77
2022/07/18 00:23:50;;;;;;;2.25;1.25;;;20.50;38.80;;;18.74;41.02;102127.16;12238717;19;20022;-77
2022/07/18 00:27:52;;;;;;;3.03;1.10;;;20.50;38.90;;;18.76;41.10;102131.44;12235491;19;20018;-77
2022/07/18 00:31:54;;;;;;;1.13;1.08;;;20.50;38.80;;;18.79;41.18;102133.91;12232169;19;20394;-77
2022/07/18 00:35:56;;;;;;;1.67;1.20;;;20.50;39.00;;;18.70;41.58;102118.59;12241024;19;20018;-77
2022/07/18 00:39:57;;;;;;;1.50;0.95;;;20.50;39.10;;;18.73;41.24;102126.31;12236873;19;20089;-76
2022/07/18 00:43:59;;;;;;;1.48;1.38;;;20.50;39.10;;;18.70;41.52;102134.47;12240760;19;20387;-77
2022/07/18 00:48:08;;;;;;;2.50;1.23;;;20.50;39.20;;;18.75;41.73;102128.91;12237050;19;20052;-76
2022/07/18 00:52:10;;;;;;;1.73;1.45;;;20.50;39.50;;;18.81;41.82;102141.72;12234850;19;20015;-77
2022/07/18 00:56:13;;;;;;;2.85;1.40;;;20.70;39.40;;;18.73;41.82;102149.31;12233972;19;20043;-77
2022/07/18 01:04:35;;;;;;;1.23;1.13;;;20.50;39.40;;;18.65;42.05;102141.88;12224559;19;20015;-77
2022/07/18 01:08:38;;;;;;;2.92;1.60;;;20.50;39.40;;;18.70;41.84;102141.56;12236701;19;20023;-77
2022/07/18 01:12:40;;;;;;;4.00;1.48;;;20.50;39.50;;;18.77;42.22;102140.25;12229591;19;20036;-77
2022/07/18 01:16:42;;;;;;;1.27;1.17;;;20.50;39.70;;;18.66;42.30;102132.13;12234296;19;20036;-77
2022/07/18 01:20:43;;;;;;;1.95;1.60;;;20.50;39.70;;;18.71;42.39;102151.19;12236245;19;20082;-77
2022/07/18 01:24:46;;;;;;;2.83;1.20;;;20.50;39.70;;;18.66;42.25;102137.41;12236227;19;20026;-77
2022/07/18 01:28:48;;;;;;;1.30;1.20;;;20.50;39.80;;;18.55;42.48;102135.50;12231276;19;20014;-76
2022/07/18 01:32:59;;;;;;;1.27;1.17;;;20.50;39.90;;;18.60;42.85;102148.44;12232489;19;20476;-77
2022/07/18 01:37:02;;;;;;;2.28;1.33;;;20.40;40.20;;;18.46;42.61;102136.94;12231215;19;20031;-77
2022/07/18 01:41:05;;;;;;;1.55;1.23;;;20.30;40.00;;;18.50;42.72;102142.91;12230075;19;20047;-77
2022/07/18 01:45:07;;;;;;;2.80;1.30;;;20.40;40.00;;;18.44;42.88;102130.91;12232826;19;20047;-77
2022/07/18 01:49:09;;;;;;;1.48;1.33;;;20.30;40.10;;;18.47;42.89;102141.31;12230463;19;20082;-76
2022/07/18 01:53:10;;;;;;;1.35;1.20;;;20.30;40.10;;;18.42;42.74;102132.00;12226073;19;20007;-77
2022/07/18 01:57:12;;;;;;;1.10;1.10;;;20.20;40.20;;;18.01;43.17;102072.06;12230708;19;20511;-77
2022/07/18 02:01:14;;;;;;;2.38;1.15;;;20.20;40.20;;;18.23;43.19;102122.59;12233765;19;20035;-77
2022/07/18 02:05:16;;;;;;;2.42;1.40;;;20.10;40.20;;;18.17;43.21;102124.78;12231057;19;20100;-77
2022/07/18 02:09:18;;;;;;;1.15;1.13;;;20.10;40.30;;;17.96;43.13;102097.94;12229441;19;20472;-77
2022/07/18 02:13:21;;;;;;;3.53;1.80;;;20.10;40.40;;;18.06;43.55;102121.03;12232281;19;20022;-76
2022/07/18 02:17:23;;;;;;;1.75;1.20;;;20.40;40.70;;;17.99;43.38;102125.03;12225973;19;20423;-77
2022/07/18 02:21:25;;;;;;;2.47;1.73;;;19.90;40.60;;;17.99;43.51;102130.31;12226922;19;20006;-76
2022/07/18 02:25:27;;;;;;;1.60;1.50;;;20.10;40.70;;;17.97;43.81;102136.66;12235524;19;20010;-77
2022/07/18 02:29:30;;;;;;;1.45;1.35;;;19.90;40.90;;;17.99;43.59;102140.91;12233233;19;20014;-77
2022/07/18 02:33:32;;;;;;;1.33;1.17;;;19.90;40.90;;;17.99;44.00;102132.97;12244239;19;20096;-76
2022/07/18 02:37:37;;;;;;;1.63;1.40;;;19.90;41.00;;;17.96;43.91;102133.16;12242714;19;20027;-77
2022/07/18 02:41:39;;;;;;;1.70;1.35;;;19.90;41.10;;;17.88;43.99;102122.25;12243274;19;20019;-77
2022/07/18 02:45:42;;;;;;;2.08;1.52;;;20.20;41.20;;;17.85;43.92;102112.72;12242508;19;20034;-77
2022/07/18 02:49:43;;;;;;;2.03;1.45;;;20.00;41.10;;;17.65;43.98;102100.72;12239828;19;20022;-77
2022/07/18 02:53:45;;;;;;;1.50;1.33;;;19.70;40.90;;;17.53;44.04;102101.50;12239092;19;20011;-77
2022/07/18 02:57:47;;;;;;;1.75;1.15;;;19.60;40.90;;;17.55;44.36;102115.47;12240087;19;20026;-76
2022/07/18 03:01:49;;;;;;;2.75;1.50;;;19.50;41.10;;;17.47;44.16;102126.50;12238681;19;20015;-77
2022/07/18 03:05:51;;;;;;;3.05;1.33;;;19.40;41.10;;;17.44;44.43;102126.69;12236543;19;20022;-76
2022/07/18 03:09:53;;;;;;;1.48;1.17;;;19.30;41.20;;;17.30;44.24;102102.91;12242414;19;20038;-77
2022/07/18 03:13:55;;;;;;;2.25;1.40;;;19.30;41.20;;;17.31;44.34;102115.19;12239641;19;20082;-77
2022/07/18 03:17:57;;;;;;;2.17;1.58;;;19.20;41.20;;;17.33;44.33;102128.28;12239532;19;20115;-77
2022/07/18 03:21:58;;;;;;;1.77;1.10;;;19.50;41.50;;;17.23;44.58;102128.84;12235443;19;20011;-76
2022/07/18 03:26:00;;;;;;;2.30;1.35;;;19.20;41.40;;;17.16;44.79;102124.88;12239985;19;20018;-77
2022/07/18 03:30:02;;;;;;;5.15;1.50;;;19.10;41.40;;;17.09;44.70;102122.69;12238255;19;20433;-76
2022/07/18 03:34:04;;;;;;;1.60;1.33;;;19.00;41.40;;;17.00;44.76;102121.47;12242339;19;20029;-77
2022/07/18 03:38:05;;;;;;;1.15;1.13;;;19.10;41.50;;;16.91;44.91;102116.75;12238639;19;20040;-76
2022/07/18 03:42:07;;;;;;;1.45;1.20;;;18.90;41.60;;;16.86;45.03;102113.53;12232982;19;20031;-76
2022/07/18 03:46:09;;;;;;;1.73;1.35;;;19.00;41.70;;;16.76;44.93;102113.19;12241283;19;20021;-76
2022/07/18 03:50:11;;;;;;;2.65;1.33;;;18.70;41.70;;;16.67;45.14;102106.66;12236308;19;20723;-77
2022/07/18 03:54:13;;;;;;;3.95;1.20;;;18.70;41.90;;;16.57;45.17;102098.44;12239225;19;20464;-76
2022/07/18 03:58:14;;;;;;;1.20;1.10;;;18.60;41.90;;;16.67;45.38;102104.03;12234584;19;20017;-76
2022/07/18 04:02:16;;;;;;;1.77;1.33;;;18.60;42.00;;;16.58;45.39;102094.03;12235000;19;20401;-76
2022/07/18 04:06:18;;;;;;;2.10;1.50;;;18.60;42.20;;;16.62;45.48;102106.09;12235306;19;20021;-76
2022/07/18 04:10:19;;;;;;;1.73;1.50;;;18.60;42.40;;;16.62;45.43;102103.44;12237373;19;20015;-76
2022/07/18 04:14:22;;;;;;;1.52;1.40;;;18.80;42.60;;;16.70;45.55;102108.28;12238365;19;20022;-76
2022/07/18 04:18:23;;;;;;;1.65;1.55;;;18.60;42.50;;;16.78;45.69;102127.19;12233624;19;20407;-76
2022/07/18 04:22:25;;;;;;;1.13;1.13;;;18.70;42.60;;;16.80;45.68;102118.22;12234452;19;20023;-76
2022/07/18 04:26:27;;;;;;;1.38;1.27;;;18.60;42.60;;;16.89;45.85;102116.00;12235788;19;20038;-76
2022/07/18 04:30:30;;;;;;;1.83;1.30;;;18.60;42.80;;;16.90;45.84;102104.47;12237455;19;20485;-76
2022/07/18 04:34:32;;;;;;;1.67;1.30;;;18.70;43.00;;;16.85;46.13;102090.72;12232062;19;20021;-76
2022/07/18 04:38:37;;;;;;;1.67;1.48;;;18.90;43.00;;;16.93;46.04;102109.56;12234875;19;20484;-76
2022/07/18 04:42:39;;;;;;;3.83;1.42;;;19.20;43.10;;;16.97;45.78;102111.94;12231965;19;20350;-76
2022/07/18 04:46:40;;;;;;;2.08;1.50;;;18.90;43.00;;;17.08;46.06;102113.94;12237239;19;20431;-76
2022/07/18 04:50:42;;;;;;;3.92;1.50;;;18.90;43.10;;;17.05;46.08;102102.72;12233757;19;20014;-77
2022/07/18 04:54:44;;;;;;;5.70;1.63;;;19.00;43.20;;;17.19;46.22;102116.78;12235842;19;20611;-77
2022/07/18 04:58:46;;;;;;;2.85;1.65;;;19.10;43.20;;;17.28;46.23;102114.50;12231791;19;20018;-76
2022/07/18 05:02:51;;;;;;;1.67;1.40;;;19.10;43.40;;;17.40;46.57;102117.25;12232548;19;20018;-76
2022/07/18 05:06:52;;;;;;;1.45;1.35;;;19.10;43.60;;;17.51;46.22;102124.50;12235069;19;20016;-76
2022/07/18 05:10:54;;;;;;;3.83;1.27;;;19.30;43.60;;;17.55;46.22;102115.47;12230422;19;20014;-76
2022/07/18 05:14:56;;;;;;;1.83;1.23;;;19.40;43.70;;;17.73;46.34;102120.53;12219648;19;20962;-77
2022/07/18 05:18:57;;;;;;;2.55;1.20;;;19.70;43.80;;;17.75;46.54;102101.00;12223500;19;20014;-76
2022/07/18 05:22:59;;;;;;;1.73;1.33;;;19.60;43.80;;;17.82;46.45;102089.13;12220188;19;20082;-77
2022/07/18 05:27:01;;;;;;;1.25;0.90;;;19.70;43.90;;;17.96;46.68;102101.44;12225058;19;20558;-78
2022/07/18 05:31:03;;;;;;;2.60;1.27;;;19.80;43.80;;;18.14;46.81;102108.16;12226732;19;20367;-76
2022/07/18 05:35:06;;;;;;;2.15;1.30;;;19.90;44.00;;;18.24;46.72;102104.94;12222649;19;20050;-76
2022/07/18 05:39:09;;;;;;;3.83;1.35;;;20.00;43.80;;;18.40;46.43;102100.34;12220244;19;20019;-76
2022/07/18 05:43:11;;;;;;;1.92;1.15;;;20.10;43.40;;;18.59;46.53;102089.38;12221900;19;20018;-77
2022/07/18 05:47:13;;;;;;;1.55;1.33;;;20.30;43.50;;;18.83;46.42;102100.13;12225223;19;20023;-77
2022/07/18 05:51:15;;;;;;;5.70;1.55;;;20.50;43.30;;;19.08;46.14;102086.03;12220226;19;20015;-77
2022/07/18 05:55:16;;;;;;;3.22;1.20;;;20.60;43.50;;;19.45;46.45;102094.91;12227145;19;20039;-77
2022/07/18 05:59:20;;;;;;;4.53;1.25;;;20.80;43.40;;;19.81;46.30;102098.56;12210167;19;20382;-76
2022/07/18 06:03:22;;;;;;;1.10;1.00;;;21.20;43.70;;;20.16;46.21;102100.44;12225487;19;20018;-77
2022/07/18 06:07:23;;;;;;;1.88;1.50;;;21.50;43.60;;;20.47;45.67;102088.38;12237577;19;20026;-77
2022/07/18 06:11:25;;;;;;;1.17;1.10;;;21.80;43.10;;;20.46;45.69;102032.75;12232756;19;20011;-76
2022/07/18 06:15:27;;;;;;;1.35;1.10;;;22.10;42.90;;;20.92;45.46;102058.44;12243472;19;20019;-81
2022/07/18 06:19:29;;;;;;;1.95;1.13;;;22.40;42.70;;;21.20;45.28;102063.31;12231848;19;20046;-76
2022/07/18 06:23:30;;;;;;;1.50;0.95;;;22.70;42.50;;;21.52;45.47;102078.53;12239956;19;20046;-76
2022/07/18 06:27:32;;;;;;;1.88;1.13;;;23.00;42.00;;;21.70;44.61;102067.38;12244566;19;20026;-77
2022/07/18 06:31:34;;;;;;;1.25;1.15;;;23.30;41.30;;;21.96;44.71;102084.72;12237931;19;20014;-78
2022/07/18 06:35:36;;;;;;;2.58;1.13;;;23.50;41.30;;;22.08;44.76;102081.03;12245517;19;20018;-77
2022/07/18 06:39:37;;;;;;;2.05;1.30;;;23.70;41.20;;;22.28;44.41;102098.06;12229006;19;20022;-77
2022/07/18 06:43:41;;;;;;;2.30;1.10;;;23.90;40.50;;;22.40;43.94;102095.34;12236919;19;20027;-77
2022/07/18 06:47:42;;;;;;;5.00;1.10;;;24.00;40.40;;;22.45;44.25;102083.34;12228242;19;20505;-77
2022/07/18 06:51:44;;;;;;;1.80;0.93;;;24.10;40.40;;;22.66;43.93;102098.47;12233039;19;20029;-77
2022/07/18 06:55:46;;;;;;;1.30;1.00;;;24.40;40.30;;;22.79;43.94;102101.78;12233602;19;20090;-77
2022/07/18 06:59:48;;;;;;;5.80;1.20;;;24.40;39.80;;;22.87;43.62;102101.97;12234484;19;20057;-77
2022/07/18 07:03:49;;;;;;;2.28;1.23;;;24.60;39.60;;;23.07;43.33;102112.78;12233271;19;20019;-77
2022/07/18 07:07:51;;;;;;;2.63;1.27;;;24.60;39.40;;;23.19;43.36;102099.19;12234379;19;20021;-77
2022/07/18 07:11:53;;;;;;;1.30;1.00;;;24.80;39.20;;;23.30;43.19;102100.94;12232475;19;20014;-77
2022/07/18 07:15:54;;;;;;;4.75;1.10;;;25.00;39.00;;;23.48;42.94;102109.16;12226597;19;20126;-76
2022/07/18 07:19:56;;;;;;;4.35;0.95;;;25.10;38.60;;;23.60;42.66;102101.88;12235120;19;20428;-77
2022/07/18 07:23:58;;;;;;;3.72;0.80;;;25.20;38.40;;;23.77;42.23;102103.09;12230479;19;20048;-77
2022/07/18 07:28:00;;;;;;;1.63;1.10;;;25.60;38.30;;;23.96;41.80;102096.94;12234796;19;20098;-77
2022/07/18 07:32:02;;;;;;;1.88;1.00;;;25.50;37.90;;;24.16;41.53;102087.94;12229055;19;20014;-76
2022/07/18 07:36:04;;;;;;;3.10;0.90;;;25.70;37.70;;;24.35;41.39;102072.91;12234311;19;20010;-77
2022/07/18 07:40:07;;;;;;;1.48;0.85;;;25.90;37.50;;;24.66;41.44;102095.00;12231978;19;20018;-77
2022/07/18 07:44:09;;;;;;;1.85;0.80;;;26.10;37.70;;;24.89;41.08;102079.44;12214985;19;20019;-77
2022/07/18 07:48:11;;;;;;;1.05;0.70;;;26.30;37.40;;;25.05;40.63;102065.47;12226258;19;20397;-77
2022/07/18 07:52:13;;;;;;;2.35;1.00;;;26.50;37.00;;;25.29;40.47;102067.66;12205618;19;20491;-77
2022/07/18 07:56:18;;;;;;;4.50;0.95;;;26.70;36.60;;;25.49;40.05;102074.59;12232908;19;20035;-77
2022/07/18 08:00:20;;;;;;;1.75;0.80;;;27.10;36.70;;;25.65;40.24;102057.84;12230802;19;20022;-76
2022/07/18 08:04:22;;;;;;;1.52;0.93;;;27.10;36.50;;;25.86;39.45;102062.94;12231301;19;20049;-76
2022/07/18 08:08:25;;;;;;;1.23;0.70;;;27.30;36.30;;;25.88;39.60;102047.59;12228799;19;20019;-77
2022/07/18 08:12:26;;;;;;;1.10;0.93;;;27.50;36.30;;;26.26;39.48;102061.63;12226941;19;20614;-77
2022/07/18 08:16:28;;;;;;;1.25;0.82;;;27.60;36.10;;;26.40;39.25;102050.34;12224769;19;20049;-77
2022/07/18 08:20:31;;;;;;;1.50;0.95;;;27.90;36.10;;;26.61;39.10;102060.75;12230189;19;20022;-76
2022/07/18 08:24:32;;;;;;;0.88;0.80;;;28.00;35.90;;;26.74;38.55;102060.34;12230732;19;20060;-77
2022/07/18 08:28:34;;;;;;;1.35;0.98;;;28.20;35.30;;;26.89;38.46;102060.56;12229598;19;20039;-77
2022/07/18 08:32:36;;;;;;;3.08;0.98;;;28.40;35.30;;;27.05;38.27;102057.97;12228858;19;20042;-76
2022/07/18 08:36:37;;;;;;;2.15;1.20;;;28.50;35.10;;;27.17;37.98;102060.38;12228217;19;20023;-77
2022/07/18 08:40:39;;;;;;;3.08;1.30;;;28.80;35.00;;;27.27;37.85;102045.84;12225129;19;20107;-76
2022/07/18 08:44:41;;;;;;;1.98;1.40;;;28.80;34.80;;;27.46;37.67;102060.00;12225542;19;20019;-77
2022/07/18 08:48:42;;;;;;;2.58;1.30;;;28.90;34.70;;;27.54;37.37;102049.28;12229194;19;20374;-77
2022/07/18 08:52:44;;;;;;;3.25;1.70;;;29.00;34.10;;;27.73;37.43;102057.06;12224786;19;20030;-77
2022/07/18 08:56:46;;;;;;;1.50;1.40;;;29.20;34.40;;;27.78;36.93;102062.75;12230589;19;20022;-77
2022/07/18 09:00:47;;;;;;;2.05;1.35;;;29.40;34.40;;;27.83;36.87;102072.19;12225639;19;20747;-77
2022/07/18 09:04:49;;;;;;;2.00;1.60;;;29.30;34.10;;;27.87;36.79;102068.16;12229012;19;20039;-77
2022/07/18 09:08:59;;;;;;;4.15;1.50;;;29.40;33.90;;;27.82;36.03;102049.06;12227334;19;20095;-77
2022/07/18 09:13:01;;;;;;;1.30;1.20;;;29.40;33.80;;;27.89;36.51;102055.41;12209325;19;20035;-76
2022/07/18 09:17:16;;;;;;;1.55;1.27;;;29.40;33.80;;;27.94;36.36;102058.44;12227951;19;20107;-77
2022/07/18 09:21:21;;;;;;;3.70;1.57;;;29.50;33.70;;;27.95;36.40;102054.75;12219208;19;20369;-76
2022/07/18 09:25:24;;;;;;;2.60;1.60;;;29.60;33.80;;;27.94;35.97;102056.59;12230437;19;20027;-76
2022/07/18 09:29:26;;;;;;;2.30;1.63;;;29.50;33.60;;;27.83;36.39;102048.88;12233562;19;20018;-76
2022/07/18 09:33:28;;;;;;;4.10;2.30;;;29.50;33.60;;;27.84;35.87;102045.22;12230665;19;20014;-77
2022/07/18 09:37:30;;;;;;;4.07;2.08;;;29.50;33.40;;;27.96;35.90;102051.91;12219662;19;20013;-77
2022/07/18 09:41:32;;;;;;;2.78;1.77;;;29.50;33.40;;;27.96;35.79;102049.22;12234312;19;20491;-76
2022/07/18 09:45:41;;;;;;;5.28;1.83;;;29.60;33.50;;;28.13;35.10;102059.97;12239889;19;20755;-76
2022/07/18 09:49:43;;;;;;;1.83;1.73;;;29.60;32.90;;;28.19;34.89;102052.09;12235361;19;20023;-76
2022/07/18 09:53:45;;;;;;;2.30;1.55;;;29.70;32.80;;;28.25;34.93;102045.22;12239646;19;20446;-76
2022/07/18 09:57:58;;;;;;;3.70;2.13;;;29.90;33.10;;;28.36;34.64;102039.47;12232181;19;20024;-76
2022/07/18 10:02:02;;;;;;;2.25;2.05;;;29.80;32.90;;;28.57;34.70;102044.34;12228660;19;20019;-75
2022/07/18 10:06:04;;;;;;;4.22;1.83;;;30.00;33.10;;;28.68;34.60;102049.38;12235585;19;20022;-78
2022/07/18 10:10:07;;;;;;;2.53;2.15;;;30.10;33.00;;;28.74;34.65;102038.94;12231328;19;20021;-78
2022/07/18 10:14:09;;;;;;;2.40;1.83;;;30.10;32.90;;;28.84;34.04;102039.56;12234597;19;20115;-78
2022/07/18 10:18:24;;;;;;;1.80;1.55;;;30.20;32.60;;;28.87;34.46;102044.63;12231867;19;20467;-76
2022/07/18 10:22:26;;;;;;;2.78;1.90;;;30.30;32.70;;;28.98;34.20;102033.47;12219395;19;20023;-78
2022/07/18 10:26:29;;;;;;;3.03;2.20;;;30.60;32.80;;;29.07;34.08;102042.38;12233667;19;20011;-77
2022/07/18 10:30:46;;;;;;;2.67;1.75;;;30.50;32.40;;;29.11;33.55;102041.84;12230195;19;20039;-77
2022/07/18 10:34:48;;;;;;;2.28;1.48;;;30.60;32.40;;;29.22;33.73;102043.31;12235941;19;20043;-77
2022/07/18 10:39:17;;;;;;;1.63;1.52;;;30.60;32.40;;;29.18;33.63;102025.00;12232047;19;20712;-78
2022/07/18 10:43:41;;;;;;;7.75;2.42;;;30.70;32.40;;;29.17;33.36;102018.78;12234001;19;20022;-77
2022/07/18 10:47:42;;;;;;;3.35;2.45;;;30.70;31.90;;;29.21;33.21;102027.34;12232598;19;20402;-77
2022/07/18 10:51:44;;;;;;;3.35;2.22;;;30.80;31.90;;;29.20;33.29;102029.19;12231321;19;20046;-78
2022/07/18 10:55:47;;;;;;;2.58;2.35;;;30.70;31.80;;;29.22;33.02;102034.38;12228127;19;20014;-77
2022/07/18 11:00:13;;;;;;;2.55;1.92;;;30.70;31.70;;;29.04;32.81;102016.66;12234903;19;20046;-79
2022/07/18 11:04:30;;;;;;;;;;;30.60;31.50;;;29.09;33.42;102011.59;12241475;19;20050;-80
2022/07/18 11:08:33;;;;;;;3.70;1.98;;;30.60;32.80;;;29.09;33.28;102022.34;12240184;19;19919;-77
2022/07/18 11:12:35;;;;;;;2.20;1.80;;;30.60;32.10;;;29.10;33.20;102017.81;12235440;19;20019;-77
2022/07/18 11:16:36;;;;;;;4.38;2.28;;;30.50;31.90;;;29.11;33.19;102019.47;12235073;19;20011;-77
2022/07/18 11:20:42;;;;;;;2.42;2.22;;;30.60;31.70;;;29.09;32.56;102013.44;12240112;19;20599;-78
2022/07/18 11:24:45;;;;;;;4.88;2.10;;;30.60;31.50;;;29.02;32.34;101993.59;12240095;19;20070;-77
2022/07/18 11:28:48;;;;;;;3.60;2.33;;;30.60;31.40;;;29.16;32.78;102008.19;12240954;19;20039;-77
2022/07/18 11:32:50;;;;;;;1.88;1.77;;;30.60;31.90;;;29.28;32.51;102006.78;12211997;19;20018;-77
2022/07/18 11:36:52;;;;;;;2.20;1.77;;;30.60;31.60;;;29.39;32.25;101997.47;12221652;19;20542;-77
2022/07/18 11:40:53;;;;;;;2.38;2.00;;;30.70;31.80;;;29.47;32.12;101990.19;12224871;19;20017;-79
2022/07/18 11:44:58;;;;;;;1.90;1.60;;;30.80;31.60;;;29.56;32.09;101972.09;12203297;19;20018;-77
2022/07/18 11:49:04;;;;;;;4.03;2.05;;;30.90;31.50;;;29.68;31.72;101975.28;12217430;19;20018;-77
2022/07/18 11:53:06;;;;;;;3.60;2.47;;;31.00;31.40;;;29.71;32.00;101964.97;12213772;19;20014;-77
2022/07/18 11:57:07;;;;;;;2.85;2.10;;;31.00;31.40;;;29.73;31.77;101948.59;12212150;19;20390;-77
2022/07/18 12:01:10;;;;;;;2.63;2.15;;;31.20;31.40;;;29.88;31.79;101957.56;12213555;19;20114;-76
2022/07/18 12:05:11;;;;;;;2.72;1.95;;;31.20;31.30;;;29.95;31.36;101961.22;12219935;19;20050;-76
2022/07/18 12:09:26;;;;;;;3.03;1.90;;;31.20;31.00;;;29.96;31.30;101938.63;12218300;19;20017;-76
2022/07/18 12:13:52;;;;;;;3.53;2.28;;;31.30;31.10;;;30.05;31.11;101947.47;12221393;19;20015;-76
2022/07/18 12:17:53;;;;;;;2.63;2.35;;;31.40;31.00;;;30.17;31.54;101956.78;12215668;19;20480;-77
2022/07/18 12:21:57;;;;;;;2.30;2.10;;;31.50;31.20;;;30.24;31.37;101934.50;12215325;19;20634;-79
2022/07/18 12:26:00;;;;;;;3.20;2.60;;;31.50;31.10;;;30.47;31.12;101958.69;12218963;19;20107;-77
2022/07/18 12:30:18;;;;;;;3.08;2.15;;;31.70;30.80;;;30.50;30.62;101932.19;12214088;19;20026;-77
2022/07/18 12:34:20;;;;;;;3.75;2.50;;;31.80;30.60;;;30.57;30.78;101933.13;12211999;19;20091;-76
2022/07/18 12:38:21;;;;;;;3.55;2.58;;;31.90;30.50;;;30.59;30.37;101930.22;12214633;19;20030;-77
2022/07/18 12:42:39;;;;;;;2.38;2.17;;;32.00;30.40;;;30.66;30.31;101933.84;12213154;19;20026;-76
2022/07/18 12:46:40;;;;;;;3.00;2.28;;;32.00;30.30;;;30.65;30.41;101932.19;12217491;19;20014;-77
2022/07/18 12:50:44;;;;;;;3.75;2.58;;;32.00;30.00;;;30.59;30.08;101927.53;12214541;19;20022;-77
2022/07/18 12:54:47;;;;;;;2.57;2.13;;;32.00;30.20;;;30.63;30.08;101934.25;12214781;19;20018;-78
2022/07/18 12:58:48;;;;;;;3.33;2.35;;;32.00;30.40;;;30.61;30.28;101920.09;12208872;19;20019;-77
2022/07/18 13:02:50;;;;;;;3.58;2.47;;;32.00;30.30;;;30.70;30.31;101923.53;12213600;19;20018;-77
2022/07/18 13:06:51;;;;;;;2.78;2.10;;;32.10;30.30;;;30.68;29.86;101904.84;12216671;19;20430;-77
2022/07/18 13:10:53;;;;;;;2.72;2.25;;;32.20;30.30;;;30.80;29.56;101907.88;12213197;19;20366;-77
2022/07/18 13:14:55;;;;;;;2.88;2.60;;;32.20;30.00;;;30.51;29.78;101861.06;12215343;19;20025;-80
2022/07/18 13:18:56;;;;;;;3.83;2.25;;;32.10;29.90;;;30.67;29.54;101891.53;12214802;19;20508;-77
2022/07/18 13:23:01;;;;;;;2.17;1.98;;;32.10;30.10;;;30.71;29.64;101893.69;12217838;19;20015;-80
2022/07/18 13:27:04;;;;;;;3.75;1.98;;;32.10;30.00;;;30.83;29.35;101889.47;12220671;19;20018;-77
2022/07/18 13:31:06;;;;;;;5.68;2.25;;;32.20;30.00;;;30.85;29.58;101878.50;12214146;19;20022;-76
2022/07/18 13:35:08;;;;;;;3.80;2.25;;;32.20;29.90;;;30.85;29.31;101876.63;12223479;19;20033;-77
2022/07/18 13:39:09;;;;;;;2.58;2.15;;;32.30;29.70;;;30.85;28.92;101867.72;12219232;19;20014;-77
2022/07/18 13:43:11;;;;;;;2.58;2.38;;;32.30;29.70;;;30.88;28.87;101877.28;12188128;19;20019;-77
2022/07/18 13:47:14;;;;;;;2.88;2.58;;;32.30;29.70;;;30.78;29.11;101875.69;12211076;19;20114;-76
2022/07/18 13:51:17;;;;;;;3.03;2.55;;;32.30;29.80;;;30.67;28.92;101854.59;12216152;19;20015;-75
2022/07/18 13:55:18;;;;;;;2.88;2.05;;;32.30;29.70;;;30.74;29.02;101870.88;12216658;19;20014;-76
2022/07/18 13:59:20;;;;;;;2.72;2.47;;;32.10;29.60;;;30.72;29.18;101867.53;12211076;19;20019;-77
2022/07/18 14:03:21;;;;;;;2.72;2.38;;;32.10;29.90;;;30.74;29.12;101870.88;12220110;19;20022;-77
2022/07/18 14:07:23;;;;;;;6.63;2.63;;;32.10;30.00;;;30.80;29.23;101879.06;12217030;19;20027;-76
2022/07/18 14:11:24;;;;;;;4.03;3.28;;;32.10;29.80;;;30.83;28.84;101867.91;12217756;19;20723;-77
2022/07/18 14:15:26;;;;;;;2.50;2.30;;;32.10;29.50;;;30.75;28.71;101862.59;12217694;19;20082;-77
2022/07/18 14:19:30;;;;;;;5.25;2.65;;;32.10;29.70;;;30.80;28.81;101862.03;12214911;19;20901;-77
2022/07/18 14:23:32;;;;;;;2.78;2.53;;;32.20;29.80;;;30.89;29.00;101860.91;12218214;19;20506;-77
2022/07/18 14:27:34;;;;;;;2.97;2.67;;;32.20;29.80;;;30.92;28.55;101870.47;12229889;19;20011;-77
2022/07/18 14:31:36;;;;;;;5.78;2.55;;;32.30;29.60;;;31.01;28.76;101872.88;12225117;19;20011;-76
2022/07/18 14:35:38;;;;;;;2.80;2.60;;;32.30;29.70;;;31.00;28.68;101854.16;12221749;19;20082;-76
2022/07/18 14:39:39;;;;;;;2.53;2.28;;;32.30;29.80;;;31.13;28.39;101859.69;12217398;19;20357;-76
2022/07/18 14:43:41;;;;;;;5.75;2.70;;;32.40;29.60;;;31.15;28.69;101859.50;12220517;19;20022;-77
2022/07/18 14:47:43;;;;;;;2.97;2.47;;;32.40;29.60;;;31.19;28.63;101848.13;12223169;19;20490;-77
2022/07/18 14:51:44;;;;;;;2.58;2.30;;;32.50;29.60;;;31.29;28.54;101854.00;12218693;19;20042;-77
2022/07/18 14:55:46;;;;;;;3.33;2.33;;;32.60;29.50;;;31.34;28.37;101845.34;12224840;19;20029;-77
2022/07/18 14:59:48;;;;;;;2.30;2.10;;;32.60;29.60;;;31.42;28.21;101836.31;12220687;19;20076;-76
2022/07/18 15:03:49;;;;;;;2.65;2.45;;;32.60;29.30;;;31.40;28.24;101831.09;12221325;19;20022;-76
2022/07/18 15:07:51;;;;;;;2.33;2.05;;;32.80;29.20;;;31.37;27.85;101811.75;12218937;19;20018;-75
2022/07/18 15:11:52;;;;;;;3.15;2.53;;;32.70;29.30;;;31.33;27.81;101796.97;12217752;19;20090;-77
2022/07/18 15:15:54;;;;;;;2.72;2.15;;;32.70;29.30;;;31.39;27.81;101809.69;12222619;19;20389;-77
2022/07/18 15:19:56;;;;;;;2.80;2.40;;;32.70;29.30;;;31.38;27.77;101814.28;12217398;19;20491;-76
2022/07/18 15:23:58;;;;;;;2.40;2.10;;;32.60;29.40;;;31.28;27.78;101801.06;12218623;19;20019;-76
2022/07/18 15:27:59;;;;;;;2.65;2.13;;;32.60;29.20;;;31.28;28.09;101809.16;12215035;19;20058;-77
2022/07/18 15:32:07;;;;;;;3.22;2.40;;;32.60;29.20;;;31.24;27.76;101810.56;12215072;19;20055;-76
2022/07/18 15:36:09;;;;;;;2.28;2.08;;;32.60;29.20;;;31.16;27.78;101808.00;12215573;19;20099;-77
2022/07/18 15:40:11;;;;;;;3.38;2.35;;;32.60;29.30;;;31.19;27.70;101818.44;12219795;19;20025;-75
2022/07/18 15:44:16;;;;;;;2.55;2.35;;;32.60;29.40;;;31.13;27.97;101815.69;12219777;19;20024;-79
2022/07/18 15:48:17;;;;;;;3.28;2.00;;;32.50;29.30;;;31.12;27.87;101812.16;12220549;19;20053;-75
2022/07/18 15:52:18;;;;;;;2.30;2.10;;;32.50;29.40;;;31.04;27.75;101802.31;12216791;19;20093;-76
2022/07/18 15:56:20;;;;;;;2.00;1.85;;;32.40;29.40;;;31.06;28.07;101804.84;12216428;19;20022;-76
2022/07/18 16:00:22;;;;;;;6.22;2.65;;;32.30;29.30;;;31.06;27.94;101799.44;12211155;19;20105;-75
2022/07/18 16:04:24;;;;;;;3.00;2.05;;;32.30;29.30;;;31.03;27.84;101791.75;12206509;19;20078;-76
2022/07/18 16:08:27;;;;;;;1.88;1.77;;;32.30;29.30;;;31.09;27.80;101793.66;12219044;19;20348;-76
2022/07/18 16:12:29;;;;;;;3.63;2.28;;;32.30;29.20;;;31.08;27.80;101784.72;12215002;19;20043;-76
2022/07/18 16:16:30;;;;;;;2.25;2.05;;;32.30;29.20;;;31.09;27.68;101789.09;12220557;19;20030;-76
2022/07/18 16:20:32;;;;;;;2.58;2.30;;;32.30;29.10;;;31.10;27.53;101776.41;12221413;19;20089;-76
2022/07/18 16:24:34;;;;;;;2.70;2.10;;;32.30;29.30;;;31.12;27.61;101773.53;12218895;19;20471;-76
2022/07/18 16:28:36;;;;;;;5.60;2.22;;;32.40;29.20;;;31.14;27.86;101768.78;12220063;19;20046;-76
2022/07/18 16:32:37;;;;;;;2.63;2.42;;;32.30;29.20;;;31.13;27.65;101761.69;12218915;19;20441;-76
2022/07/18 16:36:39;;;;;;;4.13;2.40;;;32.30;29.10;;;31.13;27.52;101761.69;12215748;19;20018;-76
2022/07/18 16:40:41;;;;;;;2.38;2.17;;;32.40;29.10;;;31.08;27.50;101748.78;12216883;19;20342;-76
2022/07/18 16:44:43;;;;;;;3.70;2.30;;;32.40;29.20;;;31.11;27.31;101753.81;12218629;19;20106;-76